Terminal Aerodrome Forecast
Issued by NWS Austin/San Antonio, TX

Current Version | Previous Version | Text Only | Print | Product List | Glossary Off
Versions: 1 2 3 4 5 6 7 8 9 10 11 12 13

421
FTUS44 KEWX 102339
TAFAUS
TAF
KAUS 102339Z 1100/1206 19010KT P6SM SKC
     FM110100 20003KT P6SM SKC
     FM111700 20012KT P6SM SKC=

USA.gov is the U.S. government's official web portal to all federal, state and local government web resources and services.